Time;durP1;ratioP1;P1;durP2;ratioP2;P2;SDS_P1;SDS_P2;PMS_P1;PMS_P2;Temp;Humidity;BMP_temperature;BMP_pressure;BME280_temperature;BME280_humidity;BME280_pressure;Samples;Min_cycle;Max_cycle;Signal;HPM_P1;HPM_P2
2021/06/23 00:01:56;;;;;;;20.40;11.20;;;;;;;;;;4993448;28;20268;-71
2021/06/23 00:04:21;;;;;;;18.05;11.40;;;;;;;;;;4985876;28;20210;-72
2021/06/23 00:06:47;;;;;;;18.45;12.18;;;;;;;;;;4995243;28;20195;-72
2021/06/23 00:09:12;;;;;;;22.20;12.40;;;;;;;;;;4985755;28;20223;-71
2021/06/23 00:11:41;;;;;;;16.15;13.07;;;;;;;;;;4998071;28;20187;-71
2021/06/23 00:14:07;;;;;;;26.13;12.52;;;;;;;;;;4995295;28;20185;-71
2021/06/23 00:16:33;;;;;;;16.80;12.77;;;;;;;;;;4987919;28;20551;-71
2021/06/23 00:18:58;;;;;;;24.60;13.13;;;;;;;;;;4993499;28;20658;-72
2021/06/23 00:21:23;;;;;;;26.08;13.95;;;;;;;;;;4989023;28;20222;-71
2021/06/23 00:23:49;;;;;;;16.45;12.73;;;;;;;;;;4995891;28;20210;-71
2021/06/23 00:26:14;;;;;;;17.70;13.02;;;;;;;;;;4984983;28;20551;-71
2021/06/23 00:28:39;;;;;;;22.10;13.52;;;;;;;;;;4994973;28;20199;-71
2021/06/23 00:31:05;;;;;;;20.85;12.75;;;;;;;;;;4985748;28;20547;-71
2021/06/23 00:33:32;;;;;;;26.83;13.13;;;;;;;;;;4996428;28;20187;-72
2021/06/23 00:35:57;;;;;;;20.08;12.65;;;;;;;;;;4989590;28;20190;-71
2021/06/23 00:38:23;;;;;;;25.30;11.75;;;;;;;;;;4994365;28;20665;-71
2021/06/23 00:40:48;;;;;;;26.55;13.15;;;;;;;;;;4989986;28;20262;-71
2021/06/23 00:43:14;;;;;;;19.55;11.55;;;;;;;;;;4994262;28;22868;-71
2021/06/23 00:45:40;;;;;;;18.27;11.38;;;;;;;;;;4995209;28;20202;-71
2021/06/23 00:48:08;;;;;;;18.98;11.18;;;;;;;;;;4984236;28;20269;-71
2021/06/23 00:50:35;;;;;;;18.92;11.55;;;;;;;;;;4997698;28;20191;-71
2021/06/23 00:53:00;;;;;;;21.75;11.43;;;;;;;;;;4986139;28;20672;-71
2021/06/23 00:55:26;;;;;;;20.52;12.43;;;;;;;;;;4999984;28;20194;-71
2021/06/23 00:57:54;;;;;;;17.58;11.43;;;;;;;;;;4989311;28;20190;-71
2021/06/23 01:00:31;;;;;;;19.45;11.55;;;;;;;;;;4998825;28;20213;-70
2021/06/23 01:02:58;;;;;;;20.17;11.38;;;;;;;;;;4991064;28;20242;-71
2021/06/23 01:05:24;;;;;;;25.10;12.02;;;;;;;;;;4998991;28;20191;-71
2021/06/23 01:07:50;;;;;;;17.60;11.32;;;;;;;;;;4992488;28;20316;-71
2021/06/23 01:10:15;;;;;;;16.73;10.85;;;;;;;;;;4998563;28;20270;-71
2021/06/23 01:13:02;;;;;;;17.55;11.32;;;;;;;;;;4991340;28;20557;-71
2021/06/23 01:15:28;;;;;;;16.15;10.77;;;;;;;;;;4999271;28;20216;-71
2021/06/23 01:17:55;;;;;;;18.00;11.68;;;;;;;;;;4990327;28;20202;-71
2021/06/23 01:20:20;;;;;;;23.23;11.20;;;;;;;;;;4997687;28;20226;-71
2021/06/23 01:22:46;;;;;;;17.77;10.25;;;;;;;;;;4997494;28;20192;-71
2021/06/23 01:25:14;;;;;;;20.50;10.48;;;;;;;;;;4989729;28;20193;-71
2021/06/23 01:27:42;;;;;;;22.23;11.23;;;;;;;;;;4999114;28;20191;-71
2021/06/23 01:30:10;;;;;;;18.95;10.15;;;;;;;;;;4990193;28;20206;-71
2021/06/23 01:32:36;;;;;;;18.45;10.75;;;;;;;;;;4998097;28;20657;-71
2021/06/23 01:35:02;;;;;;;20.30;9.95;;;;;;;;;;4990899;28;22256;-71
2021/06/23 01:37:27;;;;;;;29.30;11.52;;;;;;;;;;4997292;28;20197;-71
2021/06/23 01:39:52;;;;;;;20.42;11.27;;;;;;;;;;4989442;28;20195;-71
2021/06/23 01:42:18;;;;;;;21.80;11.45;;;;;;;;;;4996949;28;20186;-71
2021/06/23 01:44:43;;;;;;;23.27;10.75;;;;;;;;;;4986571;28;20223;-71
2021/06/23 01:47:08;;;;;;;22.60;11.35;;;;;;;;;;4998926;28;20514;-71
2021/06/23 01:49:34;;;;;;;24.20;11.65;;;;;;;;;;4986137;28;20862;-71
2021/06/23 01:51:59;;;;;;;20.88;11.48;;;;;;;;;;5013755;28;20198;-71
2021/06/23 01:54:25;;;;;;;18.85;11.30;;;;;;;;;;4992701;28;20213;-70
2021/06/23 01:56:51;;;;;;;14.02;11.20;;;;;;;;;;4996195;28;20666;-70
2021/06/23 01:59:16;;;;;;;15.25;10.85;;;;;;;;;;5009898;28;20595;-70
2021/06/23 02:02:03;;;;;;;26.38;11.38;;;;;;;;;;4989155;28;21610;-70
2021/06/23 02:04:43;;;;;;;19.23;10.90;;;;;;;;;;4995704;28;20800;-70
2021/06/23 02:07:39;;;;;;;20.95;10.68;;;;;;;;;;4989546;28;20212;-70
2021/06/23 02:10:17;;;;;;;21.80;12.05;;;;;;;;;;4995589;28;20194;-70
2021/06/23 02:13:22;;;;;;;18.75;11.10;;;;;;;;;;5000113;28;20637;-70
2021/06/23 02:15:50;;;;;;;22.75;11.15;;;;;;;;;;4989284;28;20557;-70
2021/06/23 02:18:15;;;;;;;18.35;10.93;;;;;;;;;;4998400;28;20191;-71
2021/06/23 02:20:41;;;;;;;21.27;11.15;;;;;;;;;;4997723;28;20201;-71
2021/06/23 02:23:08;;;;;;;21.58;10.27;;;;;;;;;;4990022;28;20207;-71
2021/06/23 02:25:33;;;;;;;21.80;11.27;;;;;;;;;;4996628;28;20199;-71
2021/06/23 02:27:59;;;;;;;26.08;12.02;;;;;;;;;;4990119;28;20195;-70
2021/06/23 02:30:25;;;;;;;18.08;10.35;;;;;;;;;;4995515;28;20206;-70
2021/06/23 02:32:55;;;;;;;20.23;11.82;;;;;;;;;;4991011;28;20237;-70
2021/06/23 02:35:24;;;;;;;19.75;10.40;;;;;;;;;;4996049;28;20197;-70
2021/06/23 02:37:51;;;;;;;15.63;10.43;;;;;;;;;;4992577;28;20195;-70
2021/06/23 02:40:18;;;;;;;17.60;10.43;;;;;;;;;;4993937;28;20504;-70
2021/06/23 02:42:43;;;;;;;20.75;11.20;;;;;;;;;;4988104;28;21545;-70
2021/06/23 02:45:09;;;;;;;21.48;10.43;;;;;;;;;;4996694;28;20189;-70
2021/06/23 02:47:36;;;;;;;20.35;10.52;;;;;;;;;;4988871;28;20224;-70
2021/06/23 02:50:02;;;;;;;23.63;10.00;;;;;;;;;;4994196;28;20662;-70
2021/06/23 02:52:28;;;;;;;22.67;11.15;;;;;;;;;;4989751;28;20195;-71
2021/06/23 02:54:53;;;;;;;23.83;10.82;;;;;;;;;;4995769;28;20197;-71
2021/06/23 02:57:20;;;;;;;18.42;11.13;;;;;;;;;;4996098;28;20185;-70
2021/06/23 02:59:47;;;;;;;21.80;10.73;;;;;;;;;;4987402;28;20187;-71
2021/06/23 03:02:12;;;;;;;31.23;12.70;;;;;;;;;;4994713;28;20182;-70
2021/06/23 03:04:44;;;;;;;18.13;11.15;;;;;;;;;;4987029;28;20230;-70
2021/06/23 03:07:11;;;;;;;21.30;11.63;;;;;;;;;;4994115;28;20256;-70
2021/06/23 03:09:36;;;;;;;17.55;10.55;;;;;;;;;;4989460;28;20706;-70
2021/06/23 03:12:02;;;;;;;22.52;10.90;;;;;;;;;;4995700;28;20285;-70
2021/06/23 03:14:27;;;;;;;26.42;10.82;;;;;;;;;;4989381;28;20186;-70
2021/06/23 03:16:53;;;;;;;16.55;10.32;;;;;;;;;;4994447;28;20232;-70
2021/06/23 03:19:18;;;;;;;22.67;10.23;;;;;;;;;;4986678;28;20235;-70
2021/06/23 03:21:44;;;;;;;20.13;10.57;;;;;;;;;;4994297;28;20596;-70
2021/06/23 03:24:09;;;;;;;21.35;10.50;;;;;;;;;;4983878;28;20203;-70
2021/06/23 03:26:34;;;;;;;23.13;12.02;;;;;;;;;;4994788;28;20195;-70
2021/06/23 03:29:24;;;;;;;23.02;11.13;;;;;;;;;;4996549;28;20634;-72
2021/06/23 03:31:49;;;;;;;15.95;10.80;;;;;;;;;;4993505;28;20187;-72
2021/06/23 03:34:15;;;;;;;17.13;10.52;;;;;;;;;;4993803;28;20646;-72
2021/06/23 03:36:40;;;;;;;17.38;10.95;;;;;;;;;;4986485;28;20199;-72
2021/06/23 03:39:06;;;;;;;20.25;11.23;;;;;;;;;;4995185;28;20187;-72
2021/06/23 03:41:31;;;;;;;21.42;10.95;;;;;;;;;;4985370;28;20194;-72
2021/06/23 03:43:56;;;;;;;19.70;11.70;;;;;;;;;;4996770;28;20669;-72
2021/06/23 03:46:22;;;;;;;24.25;11.18;;;;;;;;;;4986084;28;20195;-72
2021/06/23 03:48:47;;;;;;;20.40;11.40;;;;;;;;;;4996585;28;20251;-72
2021/06/23 03:51:13;;;;;;;19.70;11.32;;;;;;;;;;4986057;28;20190;-72
2021/06/23 03:53:38;;;;;;;21.00;12.32;;;;;;;;;;4994684;28;20496;-72
2021/06/23 03:56:03;;;;;;;24.27;12.07;;;;;;;;;;4989282;28;20187;-72
2021/06/23 03:58:29;;;;;;;17.98;12.20;;;;;;;;;;4996661;28;20229;-72
2021/06/23 04:00:54;;;;;;;21.02;11.82;;;;;;;;;;4996927;28;20665;-72
2021/06/23 04:03:19;;;;;;;25.60;12.15;;;;;;;;;;4988628;28;20263;-72
2021/06/23 04:05:45;;;;;;;20.95;11.52;;;;;;;;;;4995039;28;20248;-72
2021/06/23 04:08:10;;;;;;;23.77;12.40;;;;;;;;;;4987484;28;20199;-72
2021/06/23 04:10:35;;;;;;;19.25;12.07;;;;;;;;;;4995995;28;20274;-72
2021/06/23 04:13:01;;;;;;;23.13;12.65;;;;;;;;;;4987030;28;20206;-72
2021/06/23 04:15:26;;;;;;;19.77;11.77;;;;;;;;;;4995378;28;20209;-72
2021/06/23 04:17:51;;;;;;;27.00;12.85;;;;;;;;;;4986711;28;20191;-72
2021/06/23 04:20:17;;;;;;;26.70;12.52;;;;;;;;;;4998021;28;20265;-71
2021/06/23 04:22:43;;;;;;;20.17;10.88;;;;;;;;;;4986843;28;20273;-72
2021/06/23 04:25:11;;;;;;;18.55;10.85;;;;;;;;;;4995875;28;20183;-72
2021/06/23 04:27:37;;;;;;;16.40;10.63;;;;;;;;;;4988778;28;20638;-71
2021/06/23 04:30:08;;;;;;;18.15;10.98;;;;;;;;;;4995224;28;20297;-71
2021/06/23 04:32:34;;;;;;;18.40;10.27;;;;;;;;;;4994821;28;20194;-71
2021/06/23 04:35:01;;;;;;;23.08;10.50;;;;;;;;;;4988644;28;20262;-72
2021/06/23 04:37:27;;;;;;;13.35;9.70;;;;;;;;;;4994968;28;20187;-72
2021/06/23 04:39:52;;;;;;;17.02;9.10;;;;;;;;;;4984861;28;20201;-72
2021/06/23 04:42:18;;;;;;;19.00;9.77;;;;;;;;;;4994232;28;20265;-71
2021/06/23 04:44:43;;;;;;;17.65;9.45;;;;;;;;;;4987017;28;20210;-71
2021/06/23 04:47:08;;;;;;;13.52;8.68;;;;;;;;;;4990552;28;20205;-71
2021/06/23 04:49:34;;;;;;;19.88;9.30;;;;;;;;;;4985202;28;20655;-71
2021/06/23 04:51:59;;;;;;;16.98;8.55;;;;;;;;;;4994137;28;20198;-72
2021/06/23 04:54:24;;;;;;;17.50;8.73;;;;;;;;;;4985765;28;20573;-72
2021/06/23 04:56:50;;;;;;;15.43;8.27;;;;;;;;;;4992366;28;20754;-72
2021/06/23 04:59:15;;;;;;;22.60;9.38;;;;;;;;;;4987267;28;20189;-71
2021/06/23 05:01:41;;;;;;;18.67;8.48;;;;;;;;;;4993769;28;20218;-72
2021/06/23 05:04:06;;;;;;;16.60;9.88;;;;;;;;;;4993877;28;20193;-72
2021/06/23 05:06:31;;;;;;;14.55;8.02;;;;;;;;;;4986681;28;20194;-72
2021/06/23 05:08:57;;;;;;;16.17;9.43;;;;;;;;;;4995359;28;20214;-72
2021/06/23 05:11:22;;;;;;;13.00;9.77;;;;;;;;;;4984359;28;20213;-72
2021/06/23 05:13:47;;;;;;;14.32;9.13;;;;;;;;;;4990980;28;20202;-71
2021/06/23 05:16:13;;;;;;;12.38;8.13;;;;;;;;;;4985690;28;20202;-71
2021/06/23 05:18:38;;;;;;;18.30;8.07;;;;;;;;;;4993632;28;20226;-71
2021/06/23 05:21:04;;;;;;;12.90;7.75;;;;;;;;;;4986337;28;20202;-72
2021/06/23 05:23:29;;;;;;;11.85;7.20;;;;;;;;;;4992096;28;20214;-71
2021/06/23 05:25:55;;;;;;;18.55;8.02;;;;;;;;;;4985529;28;21484;-71
2021/06/23 05:28:20;;;;;;;15.23;7.22;;;;;;;;;;4992909;28;20575;-71
2021/06/23 05:30:46;;;;;;;17.00;7.80;;;;;;;;;;4993937;28;20225;-71
2021/06/23 05:33:11;;;;;;;15.55;7.60;;;;;;;;;;4986205;28;20191;-72
2021/06/23 05:35:37;;;;;;;14.27;7.30;;;;;;;;;;4992625;28;20542;-71
2021/06/23 05:38:02;;;;;;;16.38;7.25;;;;;;;;;;5002625;28;20201;-72
2021/06/23 05:40:28;;;;;;;19.08;7.15;;;;;;;;;;4997929;28;20254;-72
2021/06/23 05:42:53;;;;;;;10.60;6.50;;;;;;;;;;4989918;28;20297;-71
2021/06/23 05:45:18;;;;;;;12.07;5.90;;;;;;;;;;4996030;28;21756;-71
2021/06/23 05:47:44;;;;;;;13.63;6.22;;;;;;;;;;4988446;28;20194;-71
2021/06/23 05:50:09;;;;;;;10.43;5.40;;;;;;;;;;4995686;28;20226;-71
2021/06/23 05:52:35;;;;;;;11.00;6.88;;;;;;;;;;4988383;28;20205;-72
2021/06/23 05:55:00;;;;;;;14.52;6.22;;;;;;;;;;4998916;28;20269;-72
2021/06/23 05:57:25;;;;;;;12.43;6.07;;;;;;;;;;4986123;28;21168;-72
2021/06/23 05:59:51;;;;;;;11.73;6.32;;;;;;;;;;4995032;28;20592;-72
2021/06/23 06:02:16;;;;;;;15.13;5.97;;;;;;;;;;4998763;28;20567;-71
2021/06/23 06:04:41;;;;;;;14.25;6.32;;;;;;;;;;4985881;28;20206;-72
2021/06/23 06:07:07;;;;;;;12.48;6.28;;;;;;;;;;4997789;28;20198;-72
2021/06/23 06:09:32;;;;;;;14.88;6.25;;;;;;;;;;5002441;28;20207;-72
2021/06/23 06:11:57;;;;;;;9.25;6.18;;;;;;;;;;4994406;28;20198;-72
2021/06/23 06:14:23;;;;;;;13.52;6.13;;;;;;;;;;4989393;28;20198;-72
2021/06/23 06:16:48;;;;;;;11.65;5.97;;;;;;;;;;4998394;28;20198;-72
2021/06/23 06:19:14;;;;;;;11.60;4.68;;;;;;;;;;4985541;28;20224;-72
2021/06/23 06:21:39;;;;;;;14.43;4.82;;;;;;;;;;4997535;28;20185;-72
2021/06/23 06:24:05;;;;;;;11.82;4.88;;;;;;;;;;4985306;28;20589;-71
2021/06/23 06:26:30;;;;;;;12.25;4.03;;;;;;;;;;4996497;28;20175;-71
2021/06/23 06:28:56;;;;;;;11.40;4.28;;;;;;;;;;4992387;28;20341;-71
2021/06/23 06:31:22;;;;;;;9.02;4.00;;;;;;;;;;4992262;28;20186;-72
2021/06/23 06:33:48;;;;;;;9.93;3.60;;;;;;;;;;4996648;28;20206;-69
2021/06/23 06:36:14;;;;;;;12.80;3.85;;;;;;;;;;4989071;28;20260;-72
2021/06/23 06:38:39;;;;;;;10.75;4.38;;;;;;;;;;4997120;28;20187;-72
2021/06/23 06:41:04;;;;;;;11.90;4.78;;;;;;;;;;4987460;28;20336;-72
2021/06/23 06:43:30;;;;;;;9.85;3.88;;;;;;;;;;4999036;28;20211;-72
2021/06/23 06:45:56;;;;;;;10.73;3.78;;;;;;;;;;4992966;28;20662;-72
2021/06/23 06:48:23;;;;;;;12.93;3.47;;;;;;;;;;4996999;28;20214;-72
2021/06/23 06:50:49;;;;;;;9.95;3.80;;;;;;;;;;4989660;28;20199;-72
2021/06/23 06:53:15;;;;;;;13.18;3.90;;;;;;;;;;4997912;28;20190;-72
2021/06/23 06:55:40;;;;;;;9.88;4.05;;;;;;;;;;4993828;28;20217;-72
2021/06/23 06:58:06;;;;;;;14.73;3.90;;;;;;;;;;5001736;28;20198;-73
2021/06/23 07:00:31;;;;;;;10.27;3.60;;;;;;;;;;5003914;28;20202;-72
2021/06/23 07:02:57;;;;;;;13.20;4.20;;;;;;;;;;4993729;28;20186;-71
2021/06/23 07:05:23;;;;;;;10.63;4.38;;;;;;;;;;5003801;28;20183;-72
2021/06/23 07:07:49;;;;;;;15.02;4.45;;;;;;;;;;5009559;28;20309;-72
2021/06/23 07:10:14;;;;;;;12.20;3.95;;;;;;;;;;4996818;28;20666;-73
2021/06/23 07:12:40;;;;;;;12.93;3.30;;;;;;;;;;4990188;28;20201;-73
2021/06/23 07:15:06;;;;;;;11.60;3.65;;;;;;;;;;4999336;28;20560;-72
2021/06/23 07:17:31;;;;;;;9.68;3.05;;;;;;;;;;4996058;28;20724;-70
2021/06/23 07:19:57;;;;;;;9.70;3.08;;;;;;;;;;5001226;28;20356;-73
2021/06/23 07:22:23;;;;;;;10.90;3.38;;;;;;;;;;4991953;28;20194;-72
2021/06/23 07:24:52;;;;;;;17.88;3.38;;;;;;;;;;4997459;28;20693;-71
2021/06/23 07:27:18;;;;;;;16.65;3.75;;;;;;;;;;4988889;28;20540;-72
2021/06/23 07:29:43;;;;;;;10.98;2.90;;;;;;;;;;4997761;28;20187;-73
2021/06/23 07:32:14;;;;;;;8.32;3.20;;;;;;;;;;4992156;28;20677;-73
2021/06/23 07:37:12;;;;;;;5.82;2.63;;;;;;;;;;4997025;28;20203;-71
2021/06/23 07:39:37;;;;;;;7.72;2.55;;;;;;;;;;4989078;28;20442;-72
2021/06/23 07:42:05;;;;;;;9.77;2.60;;;;;;;;;;4996751;28;20671;-73
2021/06/23 07:44:55;;;;;;;7.45;2.60;;;;;;;;;;5003344;28;20219;-73
2021/06/23 07:47:22;;;;;;;9.20;2.55;;;;;;;;;;4998763;28;20203;-73
2021/06/23 07:49:49;;;;;;;7.00;2.20;;;;;;;;;;4986964;28;20234;-73
2021/06/23 08:08:29;;;;;;;10.93;2.65;;;;;;;;;;4994049;28;20205;-72
2021/06/23 08:10:57;;;;;;;11.35;2.45;;;;;;;;;;4988085;28;20290;-73
2021/06/23 08:13:23;;;;;;;12.70;2.22;;;;;;;;;;4994043;28;20182;-73
2021/06/23 08:15:49;;;;;;;9.32;2.30;;;;;;;;;;4987583;28;20191;-72
2021/06/23 08:18:16;;;;;;;9.98;2.13;;;;;;;;;;4997612;28;20198;-73
2021/06/23 08:20:42;;;;;;;8.32;2.17;;;;;;;;;;4988958;28;20237;-72
2021/06/23 08:23:09;;;;;;;6.22;1.85;;;;;;;;;;4995874;28;20182;-73
2021/06/23 08:25:34;;;;;;;6.43;2.25;;;;;;;;;;4985587;28;20499;-73
2021/06/23 08:28:00;;;;;;;10.20;2.17;;;;;;;;;;4995026;28;20194;-72
2021/06/23 08:30:25;;;;;;;4.95;2.38;;;;;;;;;;4985799;28;20198;-73
2021/06/23 08:32:51;;;;;;;5.80;2.80;;;;;;;;;;4995765;28;20674;-73
2021/06/23 08:35:17;;;;;;;9.25;2.25;;;;;;;;;;4994266;28;20199;-73
2021/06/23 08:37:43;;;;;;;4.85;2.50;;;;;;;;;;4986488;28;20651;-73
2021/06/23 08:40:11;;;;;;;9.43;2.30;;;;;;;;;;4993207;28;20249;-72
2021/06/23 08:42:36;;;;;;;8.10;2.15;;;;;;;;;;4986546;28;20194;-70
2021/06/23 08:45:04;;;;;;;7.10;2.47;;;;;;;;;;4992839;28;20211;-74
2021/06/23 08:47:30;;;;;;;8.55;3.03;;;;;;;;;;4985732;28;20197;-71
2021/06/23 08:49:57;;;;;;;10.15;2.85;;;;;;;;;;4996192;28;20234;-73
2021/06/23 08:52:22;;;;;;;9.02;2.88;;;;;;;;;;4987089;28;20205;-74
2021/06/23 08:54:53;;;;;;;14.90;3.13;;;;;;;;;;4995424;28;20190;-73
2021/06/23 08:57:19;;;;;;;7.65;2.63;;;;;;;;;;4985191;28;20195;-74
2021/06/23 08:59:44;;;;;;;9.90;2.85;;;;;;;;;;4993772;28;20195;-71
2021/06/23 09:02:15;;;;;;;8.52;2.13;;;;;;;;;;4983993;28;20191;-73
2021/06/23 09:05:00;;;;;;;8.73;1.98;;;;;;;;;;4996739;28;20246;-72
2021/06/23 09:07:38;;;;;;;6.72;2.65;;;;;;;;;;4986862;28;20195;-72
2021/06/23 09:10:06;;;;;;;7.68;2.45;;;;;;;;;;4996136;28;20245;-73
2021/06/23 09:12:33;;;;;;;9.10;2.47;;;;;;;;;;4988008;28;20187;-73
2021/06/23 09:15:00;;;;;;;10.25;1.98;;;;;;;;;;4999345;28;20179;-74
2021/06/23 09:17:26;;;;;;;4.35;2.13;;;;;;;;;;4996202;28;20206;-72
2021/06/23 09:19:57;;;;;;;6.50;2.40;;;;;;;;;;4993183;28;20628;-73
2021/06/23 09:22:45;;;;;;;8.25;2.53;;;;;;;;;;4997750;28;20613;-73
2021/06/23 09:25:10;;;;;;;8.27;2.50;;;;;;;;;;4990157;28;20226;-72
2021/06/23 09:27:44;;;;;;;6.75;2.83;;;;;;;;;;5001890;28;20187;-72
2021/06/23 09:30:35;;;;;;;8.80;2.28;;;;;;;;;;4989604;28;20274;-73
2021/06/23 09:33:20;;;;;;;8.68;2.47;;;;;;;;;;4999789;28;20315;-69
2021/06/23 09:36:04;;;;;;;8.95;2.50;;;;;;;;;;4990635;28;20195;-73
2021/06/23 09:38:48;;;;;;;8.05;2.58;;;;;;;;;;4999410;28;20266;-72
2021/06/23 09:41:35;;;;;;;7.70;2.95;;;;;;;;;;4999401;28;20276;-69
2021/06/23 09:44:04;;;;;;;8.10;2.97;;;;;;;;;;4993381;28;20349;-73
2021/06/23 09:46:33;;;;;;;12.32;2.92;;;;;;;;;;5012925;28;20183;-73
2021/06/23 09:49:08;;;;;;;8.07;2.53;;;;;;;;;;4996421;28;20318;-73
2021/06/23 09:51:47;;;;;;;8.93;3.08;;;;;;;;;;4988929;28;20206;-73
2021/06/23 09:54:15;;;;;;;8.98;2.90;;;;;;;;;;4999344;28;20182;-73
2021/06/23 09:56:49;;;;;;;8.50;3.00;;;;;;;;;;4990631;28;20191;-73
2021/06/23 10:01:59;;;;;;;9.00;3.20;;;;;;;;;;4990855;28;20237;-73
2021/06/23 10:04:35;;;;;;;9.77;2.72;;;;;;;;;;4996964;28;20211;-74
2021/06/23 10:07:02;;;;;;;11.23;2.83;;;;;;;;;;4990135;28;20190;-71
2021/06/23 10:09:29;;;;;;;10.20;2.90;;;;;;;;;;4997288;28;20257;-75
2021/06/23 10:12:05;;;;;;;9.05;2.30;;;;;;;;;;4990951;28;20398;-72
2021/06/23 10:14:33;;;;;;;5.05;2.10;;;;;;;;;;4996450;28;20191;-73
2021/06/23 10:17:00;;;;;;;6.80;2.10;;;;;;;;;;4987433;28;20183;-73
2021/06/23 10:19:27;;;;;;;10.68;2.97;;;;;;;;;;4998232;28;20195;-74
2021/06/23 10:21:55;;;;;;;5.13;2.30;;;;;;;;;;4992662;28;20194;-73
2021/06/23 10:24:21;;;;;;;8.45;2.72;;;;;;;;;;4996758;28;20651;-73
2021/06/23 10:26:51;;;;;;;3.90;1.92;;;;;;;;;;5003107;28;20200;-73
2021/06/23 10:29:25;;;;;;;6.10;2.25;;;;;;;;;;4998752;28;20205;-73
2021/06/23 10:31:51;;;;;;;6.40;2.45;;;;;;;;;;4987855;28;20281;-73
2021/06/23 10:34:18;;;;;;;7.35;2.25;;;;;;;;;;4998207;28;20670;-73
2021/06/23 10:36:45;;;;;;;10.73;3.38;;;;;;;;;;4992030;28;20189;-73
2021/06/23 10:39:11;;;;;;;5.95;2.80;;;;;;;;;;4997327;28;20226;-73
2021/06/23 10:41:42;;;;;;;10.40;2.40;;;;;;;;;;4997172;28;20187;-74
2021/06/23 10:44:21;;;;;;;5.13;2.60;;;;;;;;;;4982986;28;20728;-73
2021/06/23 10:46:50;;;;;;;9.93;2.78;;;;;;;;;;5013872;28;20201;-73
2021/06/23 10:49:18;;;;;;;6.65;2.90;;;;;;;;;;4988106;28;20274;-74
2021/06/23 10:51:47;;;;;;;8.98;3.15;;;;;;;;;;5013211;28;20507;-73
2021/06/23 10:54:27;;;;;;;10.63;3.28;;;;;;;;;;5005341;28;20668;-72
2021/06/23 10:56:53;;;;;;;8.93;3.00;;;;;;;;;;4998378;28;20556;-74
2021/06/23 10:59:35;;;;;;;7.75;2.80;;;;;;;;;;5001368;28;20191;-72
2021/06/23 11:02:12;;;;;;;7.88;3.05;;;;;;;;;;4996862;28;20269;-73
2021/06/23 11:05:02;;;;;;;8.32;3.03;;;;;;;;;;4986319;28;20257;-73
2021/06/23 11:07:34;;;;;;;8.23;3.13;;;;;;;;;;4995773;28;20191;-73
2021/06/23 11:10:18;;;;;;;7.50;2.90;;;;;;;;;;4987505;28;20198;-73
2021/06/23 11:12:43;;;;;;;6.22;2.42;;;;;;;;;;4995578;28;20194;-73
2021/06/23 11:15:22;;;;;;;8.27;2.65;;;;;;;;;;4295711;28;10000868;-72
2021/06/23 11:17:53;;;;;;;8.93;2.50;;;;;;;;;;4994273;28;20194;-72
2021/06/23 11:20:18;;;;;;;4.57;2.45;;;;;;;;;;4981818;28;20187;-71
2021/06/23 11:22:44;;;;;;;8.10;2.63;;;;;;;;;;4990938;28;20686;-72
2021/06/23 11:25:32;;;;;;;8.48;3.33;;;;;;;;;;4981492;28;20234;-74
2021/06/23 11:28:09;;;;;;;6.35;3.00;;;;;;;;;;4992681;28;20197;-72
2021/06/23 11:30:51;;;;;;;7.63;3.20;;;;;;;;;;4980445;28;20190;-73
2021/06/23 11:33:28;;;;;;;6.13;3.10;;;;;;;;;;4993318;28;20294;-70
2021/06/23 11:35:54;;;;;;;5.63;2.97;;;;;;;;;;4983943;28;20202;-73
2021/06/23 11:38:19;;;;;;;7.07;3.10;;;;;;;;;;4995733;28;20203;-71
2021/06/23 11:40:45;;;;;;;9.50;3.47;;;;;;;;;;4988049;28;20219;-74
2021/06/23 11:43:10;;;;;;;8.40;2.92;;;;;;;;;;4997588;28;20198;-73
2021/06/23 11:45:35;;;;;;;9.73;3.20;;;;;;;;;;4987864;28;20314;-73
2021/06/23 11:48:01;;;;;;;7.63;3.03;;;;;;;;;;4996093;28;20195;-74
2021/06/23 11:50:26;;;;;;;6.80;3.30;;;;;;;;;;4995353;28;20219;-70
2021/06/23 11:52:52;;;;;;;10.48;3.22;;;;;;;;;;4988453;28;20206;-73
2021/06/23 11:55:24;;;;;;;6.82;3.25;;;;;;;;;;4995445;28;20198;-73
2021/06/23 11:57:54;;;;;;;6.20;3.80;;;;;;;;;;4989709;28;20197;-72
2021/06/23 12:00:20;;;;;;;6.63;3.40;;;;;;;;;;4997060;28;20737;-74
2021/06/23 12:02:46;;;;;;;8.07;3.40;;;;;;;;;;4987349;28;20199;-74
2021/06/23 12:05:12;;;;;;;8.88;4.03;;;;;;;;;;4994113;28;20265;-73
2021/06/23 12:07:37;;;;;;;6.93;3.65;;;;;;;;;;4987615;28;20236;-73
2021/06/23 12:10:04;;;;;;;7.03;3.55;;;;;;;;;;4993503;28;20186;-72
2021/06/23 12:12:30;;;;;;;7.53;3.28;;;;;;;;;;4987738;28;20806;-72
2021/06/23 12:14:55;;;;;;;5.13;3.25;;;;;;;;;;4994721;28;20190;-73
2021/06/23 12:17:21;;;;;;;8.13;3.78;;;;;;;;;;4986035;28;20190;-74
2021/06/23 12:19:47;;;;;;;5.50;3.40;;;;;;;;;;4996719;28;20186;-74
2021/06/23 12:22:13;;;;;;;9.63;3.60;;;;;;;;;;4990371;28;20273;-73
2021/06/23 12:24:39;;;;;;;11.07;3.47;;;;;;;;;;4989325;28;20207;-74
2021/06/23 12:27:04;;;;;;;10.95;3.20;;;;;;;;;;5010732;28;20658;-74
2021/06/23 12:29:30;;;;;;;6.63;2.92;;;;;;;;;;4988015;28;20248;-74
2021/06/23 12:31:55;;;;;;;8.30;3.10;;;;;;;;;;4995798;28;20190;-72
2021/06/23 12:34:20;;;;;;;7.68;3.42;;;;;;;;;;4984950;28;20650;-72
2021/06/23 12:36:46;;;;;;;14.20;3.45;;;;;;;;;;4995821;28;21000;-72
2021/06/23 12:39:11;;;;;;;6.07;4.03;;;;;;;;;;4983351;28;20201;-72
2021/06/23 12:41:36;;;;;;;8.43;3.33;;;;;;;;;;4643019;28;10000260;-73
2021/06/23 12:44:02;;;;;;;7.82;3.80;;;;;;;;;;4982515;28;20290;-72
2021/06/23 12:46:27;;;;;;;6.00;3.88;;;;;;;;;;4993156;28;20285;-73
2021/06/23 12:48:53;;;;;;;12.88;4.25;;;;;;;;;;4988535;28;20241;-73
2021/06/23 12:51:18;;;;;;;4.70;3.13;;;;;;;;;;4998699;28;20190;-74
2021/06/23 12:53:43;;;;;;;10.43;3.10;;;;;;;;;;4992721;28;20186;-73
2021/06/23 12:56:09;;;;;;;7.00;2.97;;;;;;;;;;4986513;28;20639;-69
2021/06/23 12:58:34;;;;;;;11.38;3.47;;;;;;;;;;4993686;28;20201;-72
2021/06/23 13:01:00;;;;;;;8.30;3.30;;;;;;;;;;4989860;28;20213;-73
2021/06/23 13:03:25;;;;;;;8.23;3.40;;;;;;;;;;4997144;28;20217;-72
2021/06/23 13:05:51;;;;;;;7.80;3.20;;;;;;;;;;4988214;28;20657;-73
2021/06/23 13:08:16;;;;;;;7.45;2.80;;;;;;;;;;4995090;28;20227;-73
2021/06/23 13:10:42;;;;;;;6.97;3.00;;;;;;;;;;4988354;28;20193;-73
2021/06/23 13:13:07;;;;;;;7.97;2.95;;;;;;;;;;4996668;28;20190;-73
2021/06/23 13:15:33;;;;;;;6.05;3.38;;;;;;;;;;4985710;28;20201;-74
2021/06/23 13:17:58;;;;;;;8.15;3.35;;;;;;;;;;4996863;28;20194;-74
2021/06/23 13:20:28;;;;;;;5.97;3.10;;;;;;;;;;4989494;28;20182;-74
2021/06/23 13:22:54;;;;;;;5.82;3.08;;;;;;;;;;4997383;28;20187;-74
2021/06/23 13:25:20;;;;;;;8.88;3.70;;;;;;;;;;4998083;28;20715;-73
2021/06/23 13:27:46;;;;;;;13.45;3.38;;;;;;;;;;4988571;28;20732;-73
2021/06/23 13:30:12;;;;;;;9.45;3.60;;;;;;;;;;4998223;28;20171;-73
2021/06/23 13:32:38;;;;;;;8.18;3.55;;;;;;;;;;4986146;28;20195;-72
2021/06/23 13:35:03;;;;;;;7.75;3.20;;;;;;;;;;4999404;28;20253;-73
2021/06/23 13:37:29;;;;;;;8.40;4.10;;;;;;;;;;4987987;28;20668;-73
2021/06/23 13:39:54;;;;;;;6.68;3.70;;;;;;;;;;4998492;28;20225;-72
2021/06/23 13:42:19;;;;;;;9.82;3.38;;;;;;;;;;4987282;28;20237;-73
2021/06/23 13:44:45;;;;;;;8.30;3.55;;;;;;;;;;5014738;28;20285;-72
2021/06/23 13:47:10;;;;;;;12.45;4.03;;;;;;;;;;4989285;28;20261;-70
2021/06/23 13:49:35;;;;;;;9.55;3.75;;;;;;;;;;4998979;28;20235;-72
2021/06/23 13:52:01;;;;;;;5.30;3.30;;;;;;;;;;4990187;28;20187;-73
2021/06/23 13:54:26;;;;;;;7.97;3.80;;;;;;;;;;4992340;28;20181;-73
2021/06/23 13:56:52;;;;;;;9.73;3.75;;;;;;;;;;4994624;28;20191;-72
2021/06/23 13:59:17;;;;;;;8.27;4.07;;;;;;;;;;4986585;28;20295;-72
2021/06/23 14:01:42;;;;;;;9.20;3.83;;;;;;;;;;4998715;28;20303;-72
2021/06/23 14:04:08;;;;;;;9.95;3.92;;;;;;;;;;5006555;28;20237;-73
2021/06/23 14:06:33;;;;;;;6.55;3.78;;;;;;;;;;4997217;28;20214;-74
2021/06/23 14:08:59;;;;;;;5.45;3.65;;;;;;;;;;4989358;28;20189;-73
2021/06/23 14:11:24;;;;;;;8.70;3.70;;;;;;;;;;4992980;28;20194;-73
2021/06/23 14:13:49;;;;;;;9.23;3.78;;;;;;;;;;4999905;28;20198;-74
2021/06/23 14:16:15;;;;;;;7.57;3.95;;;;;;;;;;4996721;28;20883;-72
2021/06/23 14:18:40;;;;;;;7.20;3.63;;;;;;;;;;4986353;28;20193;-73
2021/06/23 14:21:06;;;;;;;6.15;3.40;;;;;;;;;;4996660;28;20198;-72
2021/06/23 14:23:33;;;;;;;8.40;3.10;;;;;;;;;;5009438;28;20778;-73
2021/06/23 14:25:59;;;;;;;6.85;4.13;;;;;;;;;;4988259;28;20222;-72
2021/06/23 14:28:24;;;;;;;8.02;3.88;;;;;;;;;;4998535;28;20246;-71
2021/06/23 14:30:49;;;;;;;8.05;3.92;;;;;;;;;;4993801;28;20194;-71
2021/06/23 14:33:15;;;;;;;6.43;3.45;;;;;;;;;;5002177;28;20277;-72
2021/06/23 14:35:40;;;;;;;8.23;3.42;;;;;;;;;;4996529;28;20229;-72
2021/06/23 14:38:06;;;;;;;5.65;3.45;;;;;;;;;;4992715;28;20873;-72
2021/06/23 14:40:32;;;;;;;4.78;2.75;;;;;;;;;;4987686;28;20196;-70
2021/06/23 14:42:58;;;;;;;7.22;3.33;;;;;;;;;;4997160;28;20189;-72
2021/06/23 14:45:24;;;;;;;8.68;4.30;;;;;;;;;;4987964;28;20366;-72
2021/06/23 14:47:50;;;;;;;9.40;3.75;;;;;;;;;;4998301;28;20221;-72
2021/06/23 14:50:17;;;;;;;7.80;3.40;;;;;;;;;;4987463;28;20230;-72
2021/06/23 14:52:43;;;;;;;8.40;3.58;;;;;;;;;;4999325;28;20528;-72
2021/06/23 14:55:10;;;;;;;9.90;3.97;;;;;;;;;;4998230;28;20494;-72